sensor_id;sensor_type;location;lat;lon;timestamp;P1;durP1;ratioP1;P2;durP2;ratioP2
23608;SDS011;11982;50.810;4.442;2023-06-22T00:01:58;9.57;;;4.85;;
23608;SDS011;11982;50.810;4.442;2023-06-22T00:04:24;6.75;;;4.65;;
23608;SDS011;11982;50.810;4.442;2023-06-22T00:06:50;7.32;;;4.60;;
23608;SDS011;11982;50.810;4.442;2023-06-22T00:09:16;9.70;;;4.50;;
23608;SDS011;11982;50.810;4.442;2023-06-22T00:11:41;8.65;;;4.70;;
23608;SDS011;11982;50.810;4.442;2023-06-22T00:14:07;15.55;;;4.28;;
23608;SDS011;11982;50.810;4.442;2023-06-22T00:16:33;9.55;;;4.50;;
23608;SDS011;11982;50.810;4.442;2023-06-22T00:18:58;10.20;;;4.55;;
23608;SDS011;11982;50.810;4.442;2023-06-22T00:21:26;6.05;;;4.40;;
23608;SDS011;11982;50.810;4.442;2023-06-22T00:23:52;6.85;;;4.68;;
23608;SDS011;11982;50.810;4.442;2023-06-22T00:29:53;8.80;;;5.18;;
23608;SDS011;11982;50.810;4.442;2023-06-22T00:32:19;6.53;;;4.85;;
23608;SDS011;11982;50.810;4.442;2023-06-22T00:34:45;9.18;;;5.05;;
23608;SDS011;11982;50.810;4.442;2023-06-22T00:37:10;8.70;;;5.40;;
23608;SDS011;11982;50.810;4.442;2023-06-22T00:39:36;7.97;;;4.97;;
23608;SDS011;11982;50.810;4.442;2023-06-22T00:42:02;9.27;;;5.10;;
23608;SDS011;11982;50.810;4.442;2023-06-22T00:44:27;8.00;;;4.95;;
23608;SDS011;11982;50.810;4.442;2023-06-22T00:46:53;9.32;;;4.90;;
23608;SDS011;11982;50.810;4.442;2023-06-22T00:49:19;6.47;;;4.93;;
23608;SDS011;11982;50.810;4.442;2023-06-22T00:51:45;8.70;;;4.72;;
23608;SDS011;11982;50.810;4.442;2023-06-22T00:54:12;9.18;;;4.80;;
23608;SDS011;11982;50.810;4.442;2023-06-22T01:00:00;8.13;;;5.03;;
23608;SDS011;11982;50.810;4.442;2023-06-22T01:02:26;8.40;;;4.82;;
23608;SDS011;11982;50.810;4.442;2023-06-22T01:04:51;5.53;;;4.32;;
23608;SDS011;11982;50.810;4.442;2023-06-22T01:07:26;7.13;;;5.03;;
23608;SDS011;11982;50.810;4.442;2023-06-22T01:10:24;6.70;;;4.47;;
23608;SDS011;11982;50.810;4.442;2023-06-22T01:13:01;8.10;;;5.47;;
23608;SDS011;11982;50.810;4.442;2023-06-22T01:18:11;7.65;;;5.10;;
23608;SDS011;11982;50.810;4.442;2023-06-22T01:20:38;5.43;;;4.57;;
23608;SDS011;11982;50.810;4.442;2023-06-22T01:25:45;7.53;;;4.93;;
23608;SDS011;11982;50.810;4.442;2023-06-22T01:30:47;7.97;;;4.43;;
23608;SDS011;11982;50.810;4.442;2023-06-22T01:33:14;8.70;;;5.10;;
23608;SDS011;11982;50.810;4.442;2023-06-22T01:35:41;9.18;;;5.30;;
23608;SDS011;11982;50.810;4.442;2023-06-22T01:38:08;5.93;;;4.88;;
23608;SDS011;11982;50.810;4.442;2023-06-22T01:40:34;9.52;;;5.50;;
23608;SDS011;11982;50.810;4.442;2023-06-22T01:43:01;9.05;;;5.57;;
23608;SDS011;11982;50.810;4.442;2023-06-22T01:45:28;8.45;;;6.18;;
23608;SDS011;11982;50.810;4.442;2023-06-22T01:47:54;12.55;;;5.43;;
23608;SDS011;11982;50.810;4.442;2023-06-22T01:50:20;8.50;;;5.72;;
23608;SDS011;11982;50.810;4.442;2023-06-22T01:52:46;7.05;;;5.50;;
23608;SDS011;11982;50.810;4.442;2023-06-22T01:55:12;10.07;;;5.32;;
23608;SDS011;11982;50.810;4.442;2023-06-22T01:57:38;9.55;;;5.97;;
23608;SDS011;11982;50.810;4.442;2023-06-22T02:00:07;8.68;;;6.00;;
23608;SDS011;11982;50.810;4.442;2023-06-22T02:02:39;8.77;;;5.70;;
23608;SDS011;11982;50.810;4.442;2023-06-22T02:05:08;8.50;;;5.32;;
23608;SDS011;11982;50.810;4.442;2023-06-22T02:07:41;8.40;;;5.25;;
23608;SDS011;11982;50.810;4.442;2023-06-22T02:10:11;8.02;;;5.55;;
23608;SDS011;11982;50.810;4.442;2023-06-22T02:16:02;6.45;;;4.55;;
23608;SDS011;11982;50.810;4.442;2023-06-22T02:18:29;8.52;;;5.35;;
23608;SDS011;11982;50.810;4.442;2023-06-22T02:20:54;9.75;;;5.10;;
23608;SDS011;11982;50.810;4.442;2023-06-22T02:23:20;6.75;;;5.05;;
23608;SDS011;11982;50.810;4.442;2023-06-22T02:25:46;8.30;;;5.10;;
23608;SDS011;11982;50.810;4.442;2023-06-22T02:28:12;10.05;;;5.80;;
23608;SDS011;11982;50.810;4.442;2023-06-22T02:30:38;5.93;;;4.47;;
23608;SDS011;11982;50.810;4.442;2023-06-22T02:33:03;6.38;;;5.05;;
23608;SDS011;11982;50.810;4.442;2023-06-22T02:35:29;10.93;;;5.38;;
23608;SDS011;11982;50.810;4.442;2023-06-22T02:38:00;9.02;;;4.97;;
23608;SDS011;11982;50.810;4.442;2023-06-22T02:40:27;9.90;;;5.38;;
23608;SDS011;11982;50.810;4.442;2023-06-22T02:46:15;7.07;;;5.20;;
23608;SDS011;11982;50.810;4.442;2023-06-22T02:48:41;7.30;;;5.40;;
23608;SDS011;11982;50.810;4.442;2023-06-22T02:51:07;7.97;;;5.82;;
23608;SDS011;11982;50.810;4.442;2023-06-22T02:53:33;8.40;;;5.07;;
23608;SDS011;11982;50.810;4.442;2023-06-22T02:56:00;7.32;;;5.78;;
23608;SDS011;11982;50.810;4.442;2023-06-22T02:58:28;14.02;;;5.72;;
23608;SDS011;11982;50.810;4.442;2023-06-22T03:00:54;7.70;;;5.55;;
23608;SDS011;11982;50.810;4.442;2023-06-22T03:03:19;8.15;;;5.28;;
23608;SDS011;11982;50.810;4.442;2023-06-22T03:05:45;7.15;;;5.45;;
23608;SDS011;11982;50.810;4.442;2023-06-22T03:08:11;11.40;;;5.53;;
23608;SDS011;11982;50.810;4.442;2023-06-22T03:10:36;8.05;;;5.65;;
23608;SDS011;11982;50.810;4.442;2023-06-22T03:16:25;9.55;;;6.80;;
23608;SDS011;11982;50.810;4.442;2023-06-22T03:18:51;7.85;;;6.35;;
23608;SDS011;11982;50.810;4.442;2023-06-22T03:21:18;9.23;;;6.75;;
23608;SDS011;11982;50.810;4.442;2023-06-22T03:23:48;7.22;;;6.53;;
23608;SDS011;11982;50.810;4.442;2023-06-22T03:26:16;9.00;;;6.50;;
23608;SDS011;11982;50.810;4.442;2023-06-22T03:32:46;12.60;;;6.38;;
23608;SDS011;11982;50.810;4.442;2023-06-22T03:35:12;8.60;;;6.22;;
23608;SDS011;11982;50.810;4.442;2023-06-22T03:37:38;10.82;;;6.15;;
23608;SDS011;11982;50.810;4.442;2023-06-22T03:40:05;10.43;;;6.15;;
23608;SDS011;11982;50.810;4.442;2023-06-22T03:45:53;11.80;;;6.32;;
23608;SDS011;11982;50.810;4.442;2023-06-22T03:48:18;7.72;;;5.60;;
23608;SDS011;11982;50.810;4.442;2023-06-22T03:50:44;9.43;;;6.28;;
23608;SDS011;11982;50.810;4.442;2023-06-22T03:53:10;12.18;;;5.60;;
23608;SDS011;11982;50.810;4.442;2023-06-22T03:55:36;10.70;;;5.88;;
23608;SDS011;11982;50.810;4.442;2023-06-22T04:01:23;8.70;;;6.25;;
23608;SDS011;11982;50.810;4.442;2023-06-22T04:03:49;8.48;;;5.82;;
23608;SDS011;11982;50.810;4.442;2023-06-22T04:06:15;7.10;;;5.50;;
23608;SDS011;11982;50.810;4.442;2023-06-22T04:08:40;10.02;;;5.95;;
23608;SDS011;11982;50.810;4.442;2023-06-22T04:11:07;9.10;;;5.53;;
23608;SDS011;11982;50.810;4.442;2023-06-22T04:16:54;11.30;;;5.45;;
23608;SDS011;11982;50.810;4.442;2023-06-22T04:19:20;12.48;;;6.05;;
23608;SDS011;11982;50.810;4.442;2023-06-22T04:21:45;9.10;;;6.20;;
23608;SDS011;11982;50.810;4.442;2023-06-22T04:24:13;10.77;;;6.47;;
23608;SDS011;11982;50.810;4.442;2023-06-22T04:26:39;12.82;;;6.85;;
23608;SDS011;11982;50.810;4.442;2023-06-22T04:32:28;8.63;;;7.13;;
23608;SDS011;11982;50.810;4.442;2023-06-22T04:34:54;12.35;;;6.93;;
23608;SDS011;11982;50.810;4.442;2023-06-22T04:37:20;13.05;;;6.85;;
23608;SDS011;11982;50.810;4.442;2023-06-22T04:39:48;12.50;;;6.43;;
23608;SDS011;11982;50.810;4.442;2023-06-22T04:42:14;8.27;;;6.00;;
23608;SDS011;11982;50.810;4.442;2023-06-22T04:48:02;17.33;;;7.72;;
23608;SDS011;11982;50.810;4.442;2023-06-22T04:50:28;17.50;;;8.20;;
23608;SDS011;11982;50.810;4.442;2023-06-22T04:52:53;15.50;;;8.95;;
23608;SDS011;11982;50.810;4.442;2023-06-22T04:55:19;16.58;;;8.82;;
23608;SDS011;11982;50.810;4.442;2023-06-22T04:57:45;22.20;;;9.00;;
23608;SDS011;11982;50.810;4.442;2023-06-22T05:00:15;17.15;;;8.70;;
23608;SDS011;11982;50.810;4.442;2023-06-22T05:02:42;19.13;;;9.60;;
23608;SDS011;11982;50.810;4.442;2023-06-22T05:05:10;27.67;;;11.85;;
23608;SDS011;11982;50.810;4.442;2023-06-22T05:07:42;24.40;;;10.43;;
23608;SDS011;11982;50.810;4.442;2023-06-22T05:10:09;34.53;;;11.68;;
23608;SDS011;11982;50.810;4.442;2023-06-22T05:12:37;30.52;;;12.38;;
23608;SDS011;11982;50.810;4.442;2023-06-22T05:18:25;40.83;;;18.38;;
23608;SDS011;11982;50.810;4.442;2023-06-22T05:20:50;31.52;;;18.98;;
23608;SDS011;11982;50.810;4.442;2023-06-22T05:23:16;35.80;;;18.80;;
23608;SDS011;11982;50.810;4.442;2023-06-22T05:25:42;33.47;;;19.65;;
23608;SDS011;11982;50.810;4.442;2023-06-22T05:28:08;34.63;;;20.55;;
23608;SDS011;11982;50.810;4.442;2023-06-22T05:30:36;37.10;;;19.83;;
23608;SDS011;11982;50.810;4.442;2023-06-22T05:33:02;41.60;;;21.52;;
23608;SDS011;11982;50.810;4.442;2023-06-22T05:35:27;41.72;;;22.05;;
23608;SDS011;11982;50.810;4.442;2023-06-22T05:37:54;38.83;;;20.70;;
23608;SDS011;11982;50.810;4.442;2023-06-22T05:40:20;33.40;;;19.83;;
23608;SDS011;11982;50.810;4.442;2023-06-22T05:42:46;40.25;;;23.55;;
23608;SDS011;11982;50.810;4.442;2023-06-22T05:48:34;37.97;;;22.50;;
23608;SDS011;11982;50.810;4.442;2023-06-22T05:51:00;33.63;;;20.33;;
23608;SDS011;11982;50.810;4.442;2023-06-22T05:53:25;34.60;;;20.42;;
23608;SDS011;11982;50.810;4.442;2023-06-22T05:55:51;36.47;;;24.13;;
23608;SDS011;11982;50.810;4.442;2023-06-22T05:58:17;40.30;;;25.45;;
23608;SDS011;11982;50.810;4.442;2023-06-22T06:00:43;37.08;;;24.13;;
23608;SDS011;11982;50.810;4.442;2023-06-22T06:03:09;39.15;;;25.95;;
23608;SDS011;11982;50.810;4.442;2023-06-22T06:05:35;42.13;;;26.42;;
23608;SDS011;11982;50.810;4.442;2023-06-22T06:08:02;39.85;;;24.92;;
23608;SDS011;11982;50.810;4.442;2023-06-22T06:10:30;39.25;;;27.42;;
23608;SDS011;11982;50.810;4.442;2023-06-22T06:12:56;44.30;;;29.48;;
23608;SDS011;11982;50.810;4.442;2023-06-22T06:18:44;44.28;;;29.77;;
23608;SDS011;11982;50.810;4.442;2023-06-22T06:21:10;46.05;;;28.02;;
23608;SDS011;11982;50.810;4.442;2023-06-22T06:23:36;44.28;;;29.88;;
23608;SDS011;11982;50.810;4.442;2023-06-22T06:26:01;45.00;;;28.88;;
23608;SDS011;11982;50.810;4.442;2023-06-22T06:28:27;45.83;;;30.60;;
23608;SDS011;11982;50.810;4.442;2023-06-22T06:34:29;41.60;;;29.23;;
23608;SDS011;11982;50.810;4.442;2023-06-22T06:36:54;42.05;;;28.77;;
23608;SDS011;11982;50.810;4.442;2023-06-22T06:39:20;37.75;;;27.90;;
23608;SDS011;11982;50.810;4.442;2023-06-22T06:41:46;43.55;;;28.63;;
23608;SDS011;11982;50.810;4.442;2023-06-22T06:44:12;43.40;;;29.33;;
23608;SDS011;11982;50.810;4.442;2023-06-22T06:46:38;37.33;;;26.83;;
23608;SDS011;11982;50.810;4.442;2023-06-22T06:49:03;34.65;;;27.02;;
23608;SDS011;11982;50.810;4.442;2023-06-22T06:51:29;36.25;;;26.88;;
23608;SDS011;11982;50.810;4.442;2023-06-22T06:53:55;38.30;;;27.15;;
23608;SDS011;11982;50.810;4.442;2023-06-22T06:56:20;35.78;;;27.92;;
23608;SDS011;11982;50.810;4.442;2023-06-22T06:58:46;35.30;;;27.98;;
23608;SDS011;11982;50.810;4.442;2023-06-22T07:04:33;33.70;;;25.35;;
23608;SDS011;11982;50.810;4.442;2023-06-22T07:07:00;35.38;;;26.65;;
23608;SDS011;11982;50.810;4.442;2023-06-22T07:09:27;31.00;;;26.13;;
23608;SDS011;11982;50.810;4.442;2023-06-22T07:11:52;38.13;;;27.77;;
23608;SDS011;11982;50.810;4.442;2023-06-22T07:14:18;30.92;;;25.08;;
23608;SDS011;11982;50.810;4.442;2023-06-22T07:20:06;34.58;;;25.45;;
23608;SDS011;11982;50.810;4.442;2023-06-22T07:22:36;36.80;;;26.38;;
23608;SDS011;11982;50.810;4.442;2023-06-22T07:25:06;32.92;;;24.85;;
23608;SDS011;11982;50.810;4.442;2023-06-22T07:27:44;33.47;;;24.67;;
23608;SDS011;11982;50.810;4.442;2023-06-22T07:30:13;33.67;;;23.70;;
23608;SDS011;11982;50.810;4.442;2023-06-22T07:32:39;30.83;;;21.38;;
23608;SDS011;11982;50.810;4.442;2023-06-22T07:35:05;28.52;;;20.88;;
23608;SDS011;11982;50.810;4.442;2023-06-22T07:37:32;31.88;;;21.70;;
23608;SDS011;11982;50.810;4.442;2023-06-22T07:39:59;26.88;;;20.75;;
23608;SDS011;11982;50.810;4.442;2023-06-22T07:42:25;25.52;;;21.70;;
23608;SDS011;11982;50.810;4.442;2023-06-22T07:44:51;30.95;;;21.40;;
23608;SDS011;11982;50.810;4.442;2023-06-22T07:47:17;30.23;;;20.70;;
23608;SDS011;11982;50.810;4.442;2023-06-22T07:49:44;25.25;;;19.65;;
23608;SDS011;11982;50.810;4.442;2023-06-22T07:52:11;29.90;;;21.70;;
23608;SDS011;11982;50.810;4.442;2023-06-22T07:54:37;27.88;;;20.95;;
23608;SDS011;11982;50.810;4.442;2023-06-22T07:57:03;26.92;;;20.10;;
23608;SDS011;11982;50.810;4.442;2023-06-22T07:59:29;30.77;;;21.33;;
23608;SDS011;11982;50.810;4.442;2023-06-22T08:05:17;27.40;;;19.85;;
23608;SDS011;11982;50.810;4.442;2023-06-22T08:07:42;29.00;;;21.08;;
23608;SDS011;11982;50.810;4.442;2023-06-22T08:10:12;29.95;;;21.30;;
23608;SDS011;11982;50.810;4.442;2023-06-22T08:12:39;27.60;;;20.52;;
23608;SDS011;11982;50.810;4.442;2023-06-22T08:15:05;26.17;;;20.42;;
23608;SDS011;11982;50.810;4.442;2023-06-22T08:21:30;27.15;;;21.33;;
23608;SDS011;11982;50.810;4.442;2023-06-22T08:23:56;27.83;;;21.55;;
23608;SDS011;11982;50.810;4.442;2023-06-22T08:26:22;31.27;;;22.05;;
23608;SDS011;11982;50.810;4.442;2023-06-22T08:28:48;31.80;;;21.33;;
23608;SDS011;11982;50.810;4.442;2023-06-22T08:31:14;29.00;;;22.15;;
23608;SDS011;11982;50.810;4.442;2023-06-22T08:33:40;32.67;;;22.80;;
23608;SDS011;11982;50.810;4.442;2023-06-22T08:36:08;31.20;;;23.77;;
23608;SDS011;11982;50.810;4.442;2023-06-22T08:38:35;31.17;;;23.55;;
23608;SDS011;11982;50.810;4.442;2023-06-22T08:41:01;31.60;;;23.98;;
23608;SDS011;11982;50.810;4.442;2023-06-22T08:43:27;30.67;;;24.05;;
23608;SDS011;11982;50.810;4.442;2023-06-22T08:45:53;34.30;;;24.08;;
23608;SDS011;11982;50.810;4.442;2023-06-22T08:48:19;34.50;;;23.92;;
23608;SDS011;11982;50.810;4.442;2023-06-22T08:50:44;33.20;;;23.33;;
23608;SDS011;11982;50.810;4.442;2023-06-22T08:53:10;31.58;;;24.25;;
23608;SDS011;11982;50.810;4.442;2023-06-22T08:55:36;31.00;;;23.92;;
23608;SDS011;11982;50.810;4.442;2023-06-22T08:58:02;28.58;;;22.48;;
23608;SDS011;11982;50.810;4.442;2023-06-22T09:00:28;28.23;;;21.77;;
23608;SDS011;11982;50.810;4.442;2023-06-22T09:06:20;30.95;;;21.55;;
23608;SDS011;11982;50.810;4.442;2023-06-22T09:08:46;29.33;;;21.77;;
23608;SDS011;11982;50.810;4.442;2023-06-22T09:11:12;29.50;;;22.67;;
23608;SDS011;11982;50.810;4.442;2023-06-22T09:13:38;26.55;;;22.25;;
23608;SDS011;11982;50.810;4.442;2023-06-22T09:16:04;33.45;;;22.30;;
23608;SDS011;11982;50.810;4.442;2023-06-22T09:18:30;27.02;;;21.27;;
23608;SDS011;11982;50.810;4.442;2023-06-22T09:20:55;27.30;;;21.58;;
23608;SDS011;11982;50.810;4.442;2023-06-22T09:23:21;37.95;;;21.65;;
23608;SDS011;11982;50.810;4.442;2023-06-22T09:25:47;32.13;;;22.67;;
23608;SDS011;11982;50.810;4.442;2023-06-22T09:28:13;36.15;;;25.58;;
23608;SDS011;11982;50.810;4.442;2023-06-22T09:30:39;38.53;;;26.63;;
23608;SDS011;11982;50.810;4.442;2023-06-22T09:36:54;40.38;;;27.20;;
23608;SDS011;11982;50.810;4.442;2023-06-22T09:39:20;36.35;;;26.13;;
23608;SDS011;11982;50.810;4.442;2023-06-22T09:41:45;37.95;;;27.08;;
23608;SDS011;11982;50.810;4.442;2023-06-22T09:44:11;35.55;;;25.95;;
23608;SDS011;11982;50.810;4.442;2023-06-22T09:46:37;37.50;;;26.40;;
23608;SDS011;11982;50.810;4.442;2023-06-22T09:49:02;36.35;;;27.27;;
23608;SDS011;11982;50.810;4.442;2023-06-22T09:51:28;39.22;;;27.05;;
23608;SDS011;11982;50.810;4.442;2023-06-22T09:53:54;36.30;;;27.23;;
23608;SDS011;11982;50.810;4.442;2023-06-22T09:56:20;38.50;;;27.20;;
23608;SDS011;11982;50.810;4.442;2023-06-22T09:58:46;43.30;;;30.13;;
23608;SDS011;11982;50.810;4.442;2023-06-22T10:01:12;42.53;;;29.02;;
23608;SDS011;11982;50.810;4.442;2023-06-22T10:03:41;47.45;;;31.08;;
23608;SDS011;11982;50.810;4.442;2023-06-22T10:06:07;38.42;;;27.92;;
23608;SDS011;11982;50.810;4.442;2023-06-22T10:08:33;46.78;;;30.52;;
23608;SDS011;11982;50.810;4.442;2023-06-22T10:11:00;43.50;;;30.20;;
23608;SDS011;11982;50.810;4.442;2023-06-22T10:13:26;45.42;;;31.92;;
23608;SDS011;11982;50.810;4.442;2023-06-22T10:15:52;44.50;;;31.20;;
23608;SDS011;11982;50.810;4.442;2023-06-22T10:21:40;47.38;;;33.65;;
23608;SDS011;11982;50.810;4.442;2023-06-22T10:24:06;49.17;;;31.90;;
23608;SDS011;11982;50.810;4.442;2023-06-22T10:26:32;47.95;;;32.15;;
23608;SDS011;11982;50.810;4.442;2023-06-22T10:28:58;46.15;;;32.95;;
23608;SDS011;11982;50.810;4.442;2023-06-22T10:31:25;54.47;;;34.38;;
23608;SDS011;11982;50.810;4.442;2023-06-22T10:37:13;54.60;;;37.75;;
23608;SDS011;11982;50.810;4.442;2023-06-22T10:39:39;53.45;;;40.53;;
23608;SDS011;11982;50.810;4.442;2023-06-22T10:42:05;54.80;;;39.30;;
23608;SDS011;11982;50.810;4.442;2023-06-22T10:44:30;61.92;;;44.17;;
23608;SDS011;11982;50.810;4.442;2023-06-22T10:46:56;58.85;;;43.22;;
23608;SDS011;11982;50.810;4.442;2023-06-22T10:49:22;60.72;;;43.03;;
23608;SDS011;11982;50.810;4.442;2023-06-22T10:51:47;62.92;;;43.28;;
23608;SDS011;11982;50.810;4.442;2023-06-22T10:54:13;63.53;;;44.00;;
23608;SDS011;11982;50.810;4.442;2023-06-22T10:56:39;61.78;;;42.95;;
23608;SDS011;11982;50.810;4.442;2023-06-22T10:59:05;65.82;;;43.05;;
23608;SDS011;11982;50.810;4.442;2023-06-22T11:01:31;68.95;;;45.20;;
23608;SDS011;11982;50.810;4.442;2023-06-22T11:07:20;68.47;;;49.30;;
23608;SDS011;11982;50.810;4.442;2023-06-22T11:09:45;70.43;;;50.00;;
23608;SDS011;11982;50.810;4.442;2023-06-22T11:12:11;72.72;;;51.90;;
23608;SDS011;11982;50.810;4.442;2023-06-22T11:14:38;75.97;;;53.45;;
23608;SDS011;11982;50.810;4.442;2023-06-22T11:17:04;71.55;;;51.35;;
23608;SDS011;11982;50.810;4.442;2023-06-22T11:19:30;73.35;;;51.70;;
23608;SDS011;11982;50.810;4.442;2023-06-22T11:21:55;82.63;;;54.92;;
23608;SDS011;11982;50.810;4.442;2023-06-22T11:24:21;79.63;;;55.13;;
23608;SDS011;11982;50.810;4.442;2023-06-22T11:26:47;81.07;;;56.78;;
23608;SDS011;11982;50.810;4.442;2023-06-22T11:29:13;85.15;;;55.13;;
23608;SDS011;11982;50.810;4.442;2023-06-22T11:31:38;84.68;;;56.53;;
23608;SDS011;11982;50.810;4.442;2023-06-22T11:37:26;79.93;;;56.08;;
23608;SDS011;11982;50.810;4.442;2023-06-22T11:39:51;86.25;;;56.58;;
23608;SDS011;11982;50.810;4.442;2023-06-22T11:42:19;87.75;;;58.58;;
23608;SDS011;11982;50.810;4.442;2023-06-22T11:44:46;84.57;;;56.40;;
23608;SDS011;11982;50.810;4.442;2023-06-22T11:47:11;84.40;;;56.30;;
23608;SDS011;11982;50.810;4.442;2023-06-22T11:52:59;86.05;;;56.03;;
23608;SDS011;11982;50.810;4.442;2023-06-22T11:55:24;83.20;;;56.35;;
23608;SDS011;11982;50.810;4.442;2023-06-22T11:57:54;85.53;;;57.03;;
23608;SDS011;11982;50.810;4.442;2023-06-22T12:00:21;83.72;;;54.72;;
23608;SDS011;11982;50.810;4.442;2023-06-22T12:02:49;88.13;;;56.13;;
23608;SDS011;11982;50.810;4.442;2023-06-22T12:05:16;77.65;;;53.03;;
23608;SDS011;11982;50.810;4.442;2023-06-22T12:07:44;86.32;;;56.90;;
23608;SDS011;11982;50.810;4.442;2023-06-22T12:10:09;84.78;;;54.97;;
23608;SDS011;11982;50.810;4.442;2023-06-22T12:12:35;82.88;;;55.08;;
23608;SDS011;11982;50.810;4.442;2023-06-22T12:15:01;80.32;;;57.08;;
23608;SDS011;11982;50.810;4.442;2023-06-22T12:17:29;83.57;;;55.08;;
23608;SDS011;11982;50.810;4.442;2023-06-22T12:23:19;79.60;;;53.60;;
23608;SDS011;11982;50.810;4.442;2023-06-22T12:25:45;86.38;;;56.92;;
23608;SDS011;11982;50.810;4.442;2023-06-22T12:28:11;82.30;;;55.95;;
23608;SDS011;11982;50.810;4.442;2023-06-22T12:30:36;85.45;;;55.50;;
23608;SDS011;11982;50.810;4.442;2023-06-22T12:33:02;89.07;;;56.97;;
23608;SDS011;11982;50.810;4.442;2023-06-22T12:35:28;87.97;;;58.95;;
23608;SDS011;11982;50.810;4.442;2023-06-22T12:37:53;86.45;;;57.38;;
23608;SDS011;11982;50.810;4.442;2023-06-22T12:40:19;83.72;;;58.05;;
23608;SDS011;11982;50.810;4.442;2023-06-22T12:42:45;98.20;;;61.03;;
23608;SDS011;11982;50.810;4.442;2023-06-22T12:45:11;88.82;;;60.83;;
23608;SDS011;11982;50.810;4.442;2023-06-22T12:47:36;102.57;;;61.67;;
23608;SDS011;11982;50.810;4.442;2023-06-22T12:53:24;99.03;;;62.55;;
23608;SDS011;11982;50.810;4.442;2023-06-22T12:55:52;97.97;;;64.28;;
23608;SDS011;11982;50.810;4.442;2023-06-22T12:58:17;100.05;;;63.75;;
23608;SDS011;11982;50.810;4.442;2023-06-22T13:00:43;101.82;;;65.47;;
23608;SDS011;11982;50.810;4.442;2023-06-22T13:03:09;108.22;;;68.65;;
23608;SDS011;11982;50.810;4.442;2023-06-22T13:08:56;116.32;;;70.43;;
23608;SDS011;11982;50.810;4.442;2023-06-22T13:11:22;108.97;;;71.47;;
23608;SDS011;11982;50.810;4.442;2023-06-22T13:13:47;126.03;;;74.88;;
23608;SDS011;11982;50.810;4.442;2023-06-22T13:16:13;117.68;;;76.00;;
23608;SDS011;11982;50.810;4.442;2023-06-22T13:18:39;123.50;;;76.68;;
23608;SDS011;11982;50.810;4.442;2023-06-22T13:21:05;128.18;;;77.95;;
23608;SDS011;11982;50.810;4.442;2023-06-22T13:23:30;131.90;;;80.88;;
23608;SDS011;11982;50.810;4.442;2023-06-22T13:25:57;126.60;;;79.68;;
23608;SDS011;11982;50.810;4.442;2023-06-22T13:28:23;139.90;;;82.55;;
23608;SDS011;11982;50.810;4.442;2023-06-22T13:30:49;130.35;;;78.43;;
23608;SDS011;11982;50.810;4.442;2023-06-22T13:33:15;144.40;;;80.60;;
23608;SDS011;11982;50.810;4.442;2023-06-22T13:39:03;130.68;;;80.63;;
23608;SDS011;11982;50.810;4.442;2023-06-22T13:41:28;130.52;;;80.07;;
23608;SDS011;11982;50.810;4.442;2023-06-22T13:43:54;134.20;;;78.72;;
23608;SDS011;11982;50.810;4.442;2023-06-22T13:46:20;134.73;;;78.50;;
23608;SDS011;11982;50.810;4.442;2023-06-22T13:48:46;130.23;;;81.32;;
23608;SDS011;11982;50.810;4.442;2023-06-22T13:54:33;126.53;;;76.57;;
23608;SDS011;11982;50.810;4.442;2023-06-22T13:56:59;107.72;;;71.03;;
23608;SDS011;11982;50.810;4.442;2023-06-22T13:59:25;103.80;;;68.47;;
23608;SDS011;11982;50.810;4.442;2023-06-22T14:01:52;112.07;;;72.28;;
23608;SDS011;11982;50.810;4.442;2023-06-22T14:04:18;109.03;;;70.22;;
23608;SDS011;11982;50.810;4.442;2023-06-22T14:06:44;101.32;;;65.32;;
23608;SDS011;11982;50.810;4.442;2023-06-22T14:09:10;109.38;;;69.82;;
23608;SDS011;11982;50.810;4.442;2023-06-22T14:11:35;108.40;;;68.95;;
23608;SDS011;11982;50.810;4.442;2023-06-22T14:14:01;107.70;;;69.97;;
23608;SDS011;11982;50.810;4.442;2023-06-22T14:16:27;108.07;;;70.57;;
23608;SDS011;11982;50.810;4.442;2023-06-22T14:18:52;104.90;;;70.38;;
23608;SDS011;11982;50.810;4.442;2023-06-22T14:24:41;107.85;;;70.18;;
23608;SDS011;11982;50.810;4.442;2023-06-22T14:27:06;109.45;;;72.72;;
23608;SDS011;11982;50.810;4.442;2023-06-22T14:29:33;108.80;;;70.13;;
23608;SDS011;11982;50.810;4.442;2023-06-22T14:31:59;119.22;;;74.55;;
23608;SDS011;11982;50.810;4.442;2023-06-22T14:34:25;127.07;;;77.78;;
23608;SDS011;11982;50.810;4.442;2023-06-22T14:40:13;113.32;;;73.28;;
23608;SDS011;11982;50.810;4.442;2023-06-22T14:42:38;117.32;;;75.22;;
23608;SDS011;11982;50.810;4.442;2023-06-22T14:45:04;121.75;;;78.82;;
23608;SDS011;11982;50.810;4.442;2023-06-22T14:47:30;126.40;;;80.28;;
23608;SDS011;11982;50.810;4.442;2023-06-22T14:49:56;130.80;;;77.15;;
23608;SDS011;11982;50.810;4.442;2023-06-22T14:52:22;142.40;;;86.50;;
23608;SDS011;11982;50.810;4.442;2023-06-22T14:54:47;139.13;;;81.63;;
23608;SDS011;11982;50.810;4.442;2023-06-22T14:57:13;131.13;;;84.97;;
23608;SDS011;11982;50.810;4.442;2023-06-22T14:59:43;135.68;;;87.07;;
23608;SDS011;11982;50.810;4.442;2023-06-22T15:02:08;148.43;;;88.30;;
23608;SDS011;11982;50.810;4.442;2023-06-22T15:04:34;137.98;;;86.32;;
23608;SDS011;11982;50.810;4.442;2023-06-22T15:10:22;146.10;;;87.40;;
23608;SDS011;11982;50.810;4.442;2023-06-22T15:12:48;131.43;;;86.22;;
23608;SDS011;11982;50.810;4.442;2023-06-22T15:15:13;146.75;;;89.53;;
23608;SDS011;11982;50.810;4.442;2023-06-22T15:17:39;145.23;;;89.55;;
23608;SDS011;11982;50.810;4.442;2023-06-22T15:20:05;128.52;;;79.97;;
23608;SDS011;11982;50.810;4.442;2023-06-22T15:22:31;130.55;;;85.72;;
23608;SDS011;11982;50.810;4.442;2023-06-22T15:24:56;133.48;;;88.15;;
23608;SDS011;11982;50.810;4.442;2023-06-22T15:27:23;139.02;;;89.63;;
23608;SDS011;11982;50.810;4.442;2023-06-22T15:29:49;137.73;;;89.18;;
23608;SDS011;11982;50.810;4.442;2023-06-22T15:32:15;136.82;;;90.07;;
23608;SDS011;11982;50.810;4.442;2023-06-22T15:34:41;139.75;;;89.25;;
23608;SDS011;11982;50.810;4.442;2023-06-22T15:40:28;140.90;;;90.43;;
23608;SDS011;11982;50.810;4.442;2023-06-22T15:42:54;131.20;;;87.45;;
23608;SDS011;11982;50.810;4.442;2023-06-22T15:45:20;128.02;;;85.93;;
23608;SDS011;11982;50.810;4.442;2023-06-22T15:47:46;130.20;;;89.05;;
23608;SDS011;11982;50.810;4.442;2023-06-22T15:50:12;132.60;;;86.05;;
23608;SDS011;11982;50.810;4.442;2023-06-22T15:56:00;134.63;;;88.13;;
23608;SDS011;11982;50.810;4.442;2023-06-22T15:58:25;133.02;;;86.07;;
23608;SDS011;11982;50.810;4.442;2023-06-22T16:00:51;127.97;;;87.53;;
23608;SDS011;11982;50.810;4.442;2023-06-22T16:03:16;125.10;;;85.78;;
23608;SDS011;11982;50.810;4.442;2023-06-22T16:05:42;116.63;;;81.65;;
23608;SDS011;11982;50.810;4.442;2023-06-22T16:08:11;118.35;;;82.57;;
23608;SDS011;11982;50.810;4.442;2023-06-22T16:10:38;125.57;;;85.32;;
23608;SDS011;11982;50.810;4.442;2023-06-22T16:13:06;124.75;;;84.10;;
23608;SDS011;11982;50.810;4.442;2023-06-22T16:15:32;119.80;;;82.25;;
23608;SDS011;11982;50.810;4.442;2023-06-22T16:17:58;116.32;;;81.72;;
23608;SDS011;11982;50.810;4.442;2023-06-22T16:20:23;121.72;;;83.55;;
23608;SDS011;11982;50.810;4.442;2023-06-22T16:26:11;125.75;;;82.43;;
23608;SDS011;11982;50.810;4.442;2023-06-22T16:28:37;119.88;;;84.05;;
23608;SDS011;11982;50.810;4.442;2023-06-22T16:31:02;118.70;;;79.78;;
23608;SDS011;11982;50.810;4.442;2023-06-22T16:33:28;124.72;;;85.00;;
23608;SDS011;11982;50.810;4.442;2023-06-22T16:35:54;123.00;;;84.53;;